Salt Lake City, Utah
Traffic Map
Current Weather Conditions
Salt Lake City, Utah
Overcast
Overcast
46°
Feels Like: 41°
Wind Chill: 41° Ceiling: 9000
Heat Index: 46° Visibility: 10mi
Dew Point: 22° Wind: 9mph
Humidity: 39% Direction: 190° (S)
Pressure: 30.13in Gusts: 0mph
Raw Report DataKSLC 020053Z 19008KT 10SM BKN090 OVC120 08/M06 A3013 RMK AO2 SLP206 T00781056
Traffic Incident Summary
Active as of:
Severity:
Category:
InformationThere was an issue retrieving the traffic information for this location. Please try a different location or try again shortly.
Advertisements
Track Severe Weather on mobile